This is the latest recevied weather packets stored in our database for station/object KA1AL. If no packets are shown the sender has not sent any weather packets the latest 10 day(s).
| Time | Temp. | Humidity | Pressure | Rain* | Wind** | Luminosity | Snow |
|---|---|---|---|---|---|---|---|
| 1777931461 | 12.78° C | 71% | 1004.8 hPa | 0 mm | - | 156 W/m² | - |
| 1777931157 | 12.78° C | 73% | 1004.6 hPa | 0 mm | - | 62 W/m² | - |
| 1777930853 | 12.78° C | 72% | 1004.7 hPa | 0 mm | - | 242 W/m² | - |
| 1777930550 | 13.33° C | 71% | 1004.8 hPa | 0 mm | - | 88 W/m² | - |
| 1777930247 | 13.89° C | 71% | 1004.5 hPa | 0 mm | - | 207 W/m² | - |
| 1777929943 | 13.89° C | 71% | 1004.7 hPa | 0 mm | - | 289 W/m² | - |
| 1777929640 | 12.78° C | 74% | 1004.5 hPa | 0 mm | - | 348 W/m² | - |
| 1777929337 | 12.78° C | 73% | 1004.6 hPa | 0 mm | - | 109 W/m² | - |
| 1777929034 | 12.78° C | 72% | 1004.7 hPa | 0 mm | - | 102 W/m² | - |
| 1777928731 | 12.78° C | 73% | 1004.2 hPa | 0 mm | - | 141 W/m² | - |
| 1777928428 | 12.78° C | 73% | 1004.2 hPa | 0 mm | - | 170 W/m² | - |
| 1777928126 | 12.22° C | 74% | 1004.5 hPa | 0 mm | - | 169 W/m² | - |
| 1777927823 | 12.22° C | 74% | 1004.6 hPa | 0 mm | - | 142 W/m² | - |
| 1777927521 | 12.22° C | 74% | 1004.4 hPa | 0 mm | - | 147 W/m² | - |
| 1777927220 | 12.22° C | 74% | 1004.7 hPa | 0 mm | - | 116 W/m² | - |
| 1777926918 | 12.22° C | 74% | 1004.6 hPa | 0 mm | - | 101 W/m² | - |
| 1777926615 | 12.22° C | 74% | 1004.2 hPa | 0 mm | - | 111 W/m² | - |
| 1777926310 | 12.78° C | 73% | 1004 hPa | 0 mm | - | 144 W/m² | - |
| 1777926007 | 12.22° C | 73% | 1004 hPa | 0 mm | - | 146 W/m² | - |
| 1777925704 | 12.22° C | 74% | 1004.2 hPa | 0 mm | - | 468 W/m² | - |
| 1777925402 | 12.22° C | 74% | 1004.2 hPa | 0 mm | - | 188 W/m² | - |
| 1777925098 | 12.78° C | 72% | 1004.4 hPa | 0 mm | - | 170 W/m² | - |
| 1777924795 | 12.22° C | 74% | 1004.1 hPa | 0 mm | - | 395 W/m² | - |
| 1777924491 | 11.67° C | 75% | 1004.5 hPa | 0 mm | - | 147 W/m² | - |
| 1777924188 | 11.67° C | 74% | 1004.4 hPa | 0 mm | - | 148 W/m² | - |
* Rain latest hour (hover to see other rain measurements)
** Current wind speed in m/s (hover to see current wind gust speed)